Time;durP1;ratioP1;P1;durP2;ratioP2;P2;SDS_P1;SDS_P2;PMS_P1;PMS_P2;Temp;Humidity;BMP_temperature;BMP_pressure;BME280_temperature;BME280_humidity;BME280_pressure;Samples;Min_cycle;Max_cycle;Signal;HPM_P1;HPM_P2
2024/01/14 00:00:10;;;;;;;10.57;4.80;;;5.10;99.90;;;;;;5041138;28;20037;-63
2024/01/14 00:02:38;;;;;;;7.35;3.63;;;5.10;99.90;;;;;;5041336;28;20040;-63
2024/01/14 00:05:08;;;;;;;7.68;4.15;;;5.10;99.90;;;;;;5040689;28;20037;-63
2024/01/14 00:07:36;;;;;;;11.48;5.10;;;5.10;99.90;;;;;;5039358;28;20477;-63
2024/01/14 00:10:03;;;;;;;6.80;3.70;;;5.10;99.90;;;;;;5033306;28;20037;-63
2024/01/14 00:12:29;;;;;;;6.72;3.97;;;5.10;99.90;;;;;;5043628;28;20041;-63
2024/01/14 00:14:55;;;;;;;8.00;3.80;;;5.10;99.90;;;;;;5038377;28;20770;-63
2024/01/14 00:17:21;;;;;;;7.40;4.05;;;5.10;99.90;;;;;;5042210;28;20048;-63
2024/01/14 00:19:47;;;;;;;5.72;3.28;;;5.20;99.90;;;;;;5035971;28;20041;-63
2024/01/14 00:22:13;;;;;;;6.07;3.50;;;5.20;99.90;;;;;;5040767;28;20087;-63
2024/01/14 00:24:39;;;;;;;4.68;2.75;;;5.20;99.90;;;;;;5036362;28;20567;-63
2024/01/14 00:27:04;;;;;;;5.70;3.08;;;5.20;99.90;;;;;;5040426;28;20124;-63
2024/01/14 00:29:30;;;;;;;5.88;3.22;;;5.20;99.90;;;;;;5039843;28;20043;-63
2024/01/14 00:31:58;;;;;;;5.40;2.22;;;5.30;99.90;;;;;;5045607;28;20079;-63
2024/01/14 00:34:24;;;;;;;6.25;1.70;;;5.20;99.90;;;;;;5041799;28;20071;-63
2024/01/14 00:36:50;;;;;;;3.38;1.60;;;5.20;99.90;;;;;;5036244;28;20065;-63
2024/01/14 00:39:16;;;;;;;3.72;2.03;;;5.20;99.90;;;;;;5035132;28;20033;-63
2024/01/14 00:41:42;;;;;;;3.42;1.55;;;5.20;99.90;;;;;;5039117;28;20043;-63
2024/01/14 00:44:07;;;;;;;2.83;1.80;;;5.20;99.90;;;;;;5038831;28;20036;-63
2024/01/14 00:46:34;;;;;;;2.70;1.85;;;5.20;99.90;;;;;;5042000;28;20037;-63
2024/01/14 00:49:00;;;;;;;3.70;1.77;;;5.30;99.90;;;;;;5043320;28;20114;-63
2024/01/14 00:51:25;;;;;;;3.83;2.42;;;5.30;99.90;;;;;;5045106;28;20037;-63
2024/01/14 00:53:51;;;;;;;4.40;2.17;;;5.10;99.90;;;;;;5039055;28;20079;-63
2024/01/14 00:56:17;;;;;;;4.00;2.38;;;5.10;99.90;;;;;;5042324;28;20037;-63
2024/01/14 00:58:43;;;;;;;3.83;2.50;;;5.00;99.90;;;;;;5040645;28;20121;-63
2024/01/14 01:01:09;;;;;;;4.60;2.53;;;4.90;99.90;;;;;;5041433;28;20033;-63
2024/01/14 01:03:35;;;;;;;4.07;2.42;;;4.90;99.90;;;;;;5041083;28;20095;-63
2024/01/14 01:06:00;;;;;;;5.85;2.95;;;4.90;99.90;;;;;;5043545;28;20064;-63
2024/01/14 01:08:26;;;;;;;5.15;2.92;;;4.70;99.90;;;;;;5044491;28;20040;-63
2024/01/14 01:10:52;;;;;;;6.38;2.85;;;4.80;99.90;;;;;;5037899;28;20033;-63
2024/01/14 01:13:18;;;;;;;5.40;2.70;;;4.70;99.90;;;;;;5034979;28;20500;-63
2024/01/14 01:15:43;;;;;;;4.30;2.70;;;4.70;99.90;;;;;;5037335;28;20077;-63
2024/01/14 01:18:09;;;;;;;4.72;2.88;;;4.80;99.90;;;;;;5040549;28;20879;-63
2024/01/14 01:20:35;;;;;;;7.07;2.60;;;4.80;99.90;;;;;;5040166;28;20047;-63
2024/01/14 01:23:01;;;;;;;5.32;3.00;;;4.80;99.90;;;;;;5043272;28;20068;-63
2024/01/14 01:25:26;;;;;;;7.22;2.85;;;4.80;99.90;;;;;;5044247;28;20082;-63
2024/01/14 01:27:52;;;;;;;5.07;2.78;;;4.80;99.90;;;;;;5040737;28;20033;-63
2024/01/14 01:30:18;;;;;;;5.38;2.85;;;4.80;99.90;;;;;;5038216;28;20033;-63
2024/01/14 01:32:43;;;;;;;5.82;2.72;;;4.80;99.90;;;;;;5036488;28;20025;-63
2024/01/14 01:35:09;;;;;;;6.65;2.92;;;4.80;99.90;;;;;;5040672;28;20789;-63
2024/01/14 01:37:35;;;;;;;8.00;2.22;;;4.80;99.90;;;;;;5039441;28;20709;-63
2024/01/14 01:40:01;;;;;;;5.75;2.38;;;4.80;99.90;;;;;;5042137;28;20028;-63
2024/01/14 01:42:27;;;;;;;3.38;1.65;;;4.70;99.90;;;;;;5039026;28;20047;-63
2024/01/14 01:44:53;;;;;;;5.55;1.88;;;4.80;99.90;;;;;;5040674;28;20036;-63
2024/01/14 01:47:20;;;;;;;3.40;2.05;;;4.80;99.90;;;;;;5037656;28;20033;-63
2024/01/14 01:49:46;;;;;;;5.13;1.88;;;4.70;99.90;;;;;;5035069;28;20053;-63
2024/01/14 01:52:14;;;;;;;4.90;2.05;;;4.70;99.90;;;;;;5039585;28;20039;-62
2024/01/14 01:54:41;;;;;;;2.70;1.65;;;4.60;99.90;;;;;;5038727;28;20305;-63
2024/01/14 01:57:08;;;;;;;2.63;1.63;;;4.60;99.90;;;;;;5043535;28;20033;-63
2024/01/14 01:59:34;;;;;;;3.13;1.60;;;4.60;99.90;;;;;;5041836;28;20481;-63
2024/01/14 02:02:02;;;;;;;4.97;1.70;;;4.50;99.90;;;;;;5044242;28;20648;-63
2024/01/14 02:04:29;;;;;;;2.35;1.73;;;4.60;99.90;;;;;;5036434;28;20447;-63
2024/01/14 02:06:56;;;;;;;4.35;1.60;;;4.50;99.90;;;;;;5036364;28;20029;-63
2024/01/14 02:09:22;;;;;;;5.07;1.77;;;4.60;99.90;;;;;;5039225;28;20095;-63
2024/01/14 02:11:47;;;;;;;2.63;1.40;;;4.50;99.90;;;;;;5038846;28;20037;-63
2024/01/14 02:14:13;;;;;;;2.67;1.70;;;4.50;99.90;;;;;;5037473;28;20439;-63
2024/01/14 02:16:39;;;;;;;5.38;1.45;;;4.50;99.90;;;;;;5041954;28;20063;-63
2024/01/14 02:19:05;;;;;;;3.53;1.50;;;4.40;99.90;;;;;;5044089;28;20436;-63
2024/01/14 02:21:44;;;;;;;2.88;0.90;;;4.40;99.90;;;;;;5039841;28;20048;-62
2024/01/14 02:24:33;;;;;;;5.53;1.42;;;4.40;99.90;;;;;;5037536;28;20446;-63
2024/01/14 02:26:58;;;;;;;2.53;1.40;;;4.40;99.90;;;;;;5040354;28;20033;-62
2024/01/14 02:29:27;;;;;;;4.78;1.33;;;4.40;99.90;;;;;;5043961;28;20503;-63
2024/01/14 02:31:53;;;;;;;4.40;1.80;;;4.40;99.90;;;;;;5036676;28;20077;-63
2024/01/14 02:34:19;;;;;;;3.53;1.60;;;4.30;99.90;;;;;;5043599;28;20048;-63
2024/01/14 02:36:45;;;;;;;1.92;1.10;;;4.30;99.90;;;;;;5043940;28;20460;-63
2024/01/14 02:39:10;;;;;;;3.42;1.38;;;4.20;99.90;;;;;;5038376;28;20021;-63
2024/01/14 02:41:36;;;;;;;3.47;1.20;;;4.10;99.90;;;;;;5045924;28;20623;-63
2024/01/14 02:44:02;;;;;;;9.20;1.60;;;4.20;99.90;;;;;;5042913;28;20025;-63
2024/01/14 02:46:29;;;;;;;4.50;1.45;;;4.10;99.90;;;;;;5042697;28;20405;-63
2024/01/14 02:48:55;;;;;;;2.55;1.17;;;4.10;99.90;;;;;;5043751;28;20057;-63
2024/01/14 02:51:21;;;;;;;3.85;1.48;;;4.10;99.90;;;;;;5046016;28;20029;-63
2024/01/14 02:53:47;;;;;;;6.18;1.15;;;4.10;99.90;;;;;;5039948;28;20046;-63
2024/01/14 02:56:13;;;;;;;3.55;1.05;;;4.00;99.90;;;;;;5043855;28;20466;-63
2024/01/14 02:58:39;;;;;;;2.67;0.90;;;4.00;99.90;;;;;;5038930;28;20036;-63
2024/01/14 03:01:05;;;;;;;3.85;1.13;;;4.10;99.90;;;;;;5039413;28;20037;-63
2024/01/14 03:03:31;;;;;;;4.00;1.25;;;3.90;99.90;;;;;;5042038;28;20119;-63
2024/01/14 03:05:57;;;;;;;8.13;1.45;;;3.90;99.90;;;;;;5043296;28;20116;-63
2024/01/14 03:08:22;;;;;;;3.47;0.90;;;4.00;99.90;;;;;;5045093;28;20039;-63
2024/01/14 03:10:48;;;;;;;2.47;1.00;;;4.00;99.90;;;;;;5041508;28;20025;-63
2024/01/14 03:13:15;;;;;;;1.63;0.82;;;4.10;99.90;;;;;;5043387;28;20147;-63
2024/01/14 03:15:45;;;;;;;5.28;1.13;;;4.20;99.90;;;;;;5034051;28;20607;-63
2024/01/14 03:18:15;;;;;;;6.30;0.88;;;4.20;99.90;;;;;;5041277;28;20395;-63
2024/01/14 03:20:42;;;;;;;4.75;1.88;;;4.30;99.90;;;;;;5038695;28;20028;-63
2024/01/14 03:23:08;;;;;;;3.40;1.00;;;4.20;99.90;;;;;;5043858;28;20468;-63
2024/01/14 03:25:34;;;;;;;4.90;0.88;;;4.20;99.90;;;;;;5043221;28;20108;-63
2024/01/14 03:28:00;;;;;;;2.13;1.00;;;4.20;99.90;;;;;;5045500;28;20500;-63
2024/01/14 03:30:25;;;;;;;7.15;0.90;;;4.20;99.90;;;;;;5046916;28;20556;-63
2024/01/14 03:32:51;;;;;;;3.65;1.02;;;4.20;99.90;;;;;;5036702;28;20029;-63
2024/01/14 03:35:18;;;;;;;7.00;0.82;;;4.20;99.90;;;;;;5042677;28;20064;-63
2024/01/14 03:37:43;;;;;;;4.93;1.33;;;4.20;99.90;;;;;;5041580;28;20155;-63
2024/01/14 03:40:10;;;;;;;6.40;0.88;;;4.10;99.90;;;;;;5042771;28;20471;-62
2024/01/14 03:42:36;;;;;;;4.55;0.82;;;4.10;99.90;;;;;;5042867;28;20020;-63
2024/01/14 03:45:03;;;;;;;2.47;1.00;;;4.00;99.90;;;;;;5045477;28;20503;-62
2024/01/14 03:47:28;;;;;;;1.65;0.70;;;4.00;99.90;;;;;;5045484;28;20155;-63
2024/01/14 03:49:54;;;;;;;4.10;1.00;;;4.00;99.90;;;;;;5039422;28;20548;-63
2024/01/14 03:52:20;;;;;;;4.30;1.73;;;4.10;99.90;;;;;;5043683;28;20031;-63
2024/01/14 03:54:46;;;;;;;2.25;0.80;;;4.10;99.90;;;;;;5038578;28;20063;-63
2024/01/14 03:57:12;;;;;;;4.75;1.10;;;4.10;99.90;;;;;;5044662;28;20032;-63
2024/01/14 03:59:38;;;;;;;4.15;0.93;;;4.20;99.90;;;;;;5043238;28;20570;-63
2024/01/14 04:02:04;;;;;;;3.75;0.88;;;4.20;99.90;;;;;;5044676;28;20029;-63
2024/01/14 04:04:30;;;;;;;2.78;0.75;;;4.20;99.90;;;;;;5045601;28;20686;-63
2024/01/14 04:06:55;;;;;;;6.05;0.90;;;4.20;99.90;;;;;;5038648;28;20614;-62
2024/01/14 04:09:21;;;;;;;6.93;1.05;;;4.20;99.90;;;;;;5042590;28;20056;-63
2024/01/14 04:11:47;;;;;;;2.42;0.75;;;4.20;99.90;;;;;;5041190;28;20033;-63
2024/01/14 04:14:12;;;;;;;7.15;1.13;;;4.20;99.90;;;;;;5042266;28;20029;-63
2024/01/14 04:16:40;;;;;;;5.22;0.95;;;4.10;99.90;;;;;;5040549;28;20029;-63
2024/01/14 04:19:07;;;;;;;7.68;1.17;;;4.10;99.90;;;;;;5043859;28;20044;-63
2024/01/14 04:21:33;;;;;;;2.25;0.77;;;4.00;99.90;;;;;;5044935;28;20024;-63
2024/01/14 04:23:59;;;;;;;3.08;0.77;;;4.00;99.90;;;;;;5041930;28;20516;-63
2024/01/14 04:26:26;;;;;;;3.03;1.25;;;4.00;99.90;;;;;;5039422;28;20381;-63
2024/01/14 04:28:52;;;;;;;9.30;1.10;;;4.00;99.90;;;;;;5040009;28;20029;-63
2024/01/14 04:31:18;;;;;;;2.50;1.10;;;4.00;99.90;;;;;;5044725;28;20484;-63
2024/01/14 04:33:45;;;;;;;4.93;0.95;;;3.90;99.90;;;;;;5041067;28;20037;-63
2024/01/14 04:36:11;;;;;;;3.45;0.90;;;3.90;99.90;;;;;;5043918;28;20436;-63
2024/01/14 04:38:36;;;;;;;4.97;1.35;;;3.90;99.90;;;;;;5043340;28;20033;-62
2024/01/14 04:41:02;;;;;;;6.93;1.27;;;4.00;99.90;;;;;;5040875;28;20037;-63
2024/01/14 04:43:28;;;;;;;2.65;0.77;;;4.10;99.90;;;;;;5037616;28;20093;-63
2024/01/14 04:45:54;;;;;;;3.72;0.77;;;4.20;99.90;;;;;;5046014;28;20469;-63
2024/01/14 04:48:20;;;;;;;4.55;1.13;;;4.30;99.90;;;;;;5040349;28;20032;-63
2024/01/14 04:50:46;;;;;;;5.18;1.52;;;4.30;99.90;;;;;;5040671;28;20067;-63
2024/01/14 04:53:12;;;;;;;6.38;1.27;;;4.30;99.90;;;;;;5044008;28;20032;-63
2024/01/14 04:55:38;;;;;;;3.60;1.00;;;4.30;99.90;;;;;;5042841;28;20530;-63
2024/01/14 04:58:04;;;;;;;2.60;0.70;;;4.30;99.90;;;;;;5044872;28;20502;-63
2024/01/14 05:00:30;;;;;;;10.57;1.10;;;4.30;99.90;;;;;;5037371;28;20560;-63
2024/01/14 05:02:55;;;;;;;5.38;1.23;;;4.40;99.90;;;;;;5033887;28;20090;-63
2024/01/14 05:05:21;;;;;;;5.22;0.75;;;4.40;99.90;;;;;;5036885;28;20446;-63
2024/01/14 05:07:47;;;;;;;8.60;1.33;;;4.40;99.90;;;;;;5038303;28;20059;-63
2024/01/14 05:10:13;;;;;;;3.45;1.00;;;4.40;99.90;;;;;;5041993;28;20086;-63
2024/01/14 05:12:39;;;;;;;3.67;0.65;;;4.40;99.90;;;;;;5042200;28;20025;-63
2024/01/14 05:15:05;;;;;;;3.55;0.90;;;4.40;99.90;;;;;;5043607;28;20922;-63
2024/01/14 05:17:31;;;;;;;5.45;1.05;;;4.30;99.90;;;;;;5037521;28;20373;-63
2024/01/14 05:19:57;;;;;;;6.78;1.42;;;4.30;99.90;;;;;;5035924;28;20033;-63
2024/01/14 05:22:23;;;;;;;5.70;0.70;;;4.30;99.90;;;;;;5042430;28;20028;-63
2024/01/14 05:24:50;;;;;;;7.10;1.23;;;4.40;99.90;;;;;;5036748;28;20485;-63
2024/01/14 05:27:16;;;;;;;8.82;1.50;;;4.40;99.90;;;;;;5038878;28;20102;-63
2024/01/14 05:29:44;;;;;;;4.47;1.10;;;4.40;99.90;;;;;;5040930;28;20031;-63
2024/01/14 05:32:14;;;;;;;5.10;0.80;;;4.30;99.90;;;;;;5039536;28;20032;-63
2024/01/14 05:34:40;;;;;;;5.47;0.90;;;4.30;99.90;;;;;;5042825;28;20166;-63
2024/01/14 05:37:07;;;;;;;3.88;1.10;;;4.20;99.90;;;;;;5039224;28;20737;-63
2024/01/14 05:39:33;;;;;;;8.75;1.60;;;4.30;99.90;;;;;;5037417;28;20083;-62
2024/01/14 05:41:59;;;;;;;6.00;1.15;;;4.40;99.90;;;;;;5034413;28;20048;-63
2024/01/14 05:44:25;;;;;;;4.85;1.10;;;4.30;99.90;;;;;;5040881;28;20021;-63
2024/01/14 05:46:52;;;;;;;6.03;1.02;;;4.30;99.90;;;;;;5040155;28;20030;-63
2024/01/14 05:49:18;;;;;;;2.00;0.80;;;4.40;99.90;;;;;;5042903;28;20029;-63
2024/01/14 05:51:44;;;;;;;2.55;0.90;;;4.40;99.90;;;;;;5043463;28;20036;-63
2024/01/14 05:54:10;;;;;;;2.60;0.85;;;4.40;99.90;;;;;;5034995;28;20030;-63
2024/01/14 05:56:35;;;;;;;8.32;1.10;;;4.50;99.90;;;;;;5038767;28;20108;-63
2024/01/14 05:59:01;;;;;;;2.65;0.70;;;4.50;99.90;;;;;;5037454;28;20079;-63
2024/01/14 06:01:28;;;;;;;5.63;1.20;;;4.60;99.90;;;;;;5040371;28;20083;-63
2024/01/14 06:03:54;;;;;;;5.22;0.88;;;4.60;99.90;;;;;;5038900;28;20040;-63
2024/01/14 06:06:20;;;;;;;3.03;0.90;;;4.50;99.90;;;;;;5042678;28;20064;-63
2024/01/14 06:08:46;;;;;;;3.08;0.90;;;4.60;99.90;;;;;;5038908;28;20060;-63
2024/01/14 06:11:13;;;;;;;3.38;0.80;;;4.60;99.90;;;;;;5037149;28;20473;-63
2024/01/14 06:13:39;;;;;;;2.78;0.90;;;4.60;99.90;;;;;;5036073;28;20052;-63
2024/01/14 06:16:05;;;;;;;6.60;1.65;;;4.60;99.90;;;;;;5040607;28;20056;-63
2024/01/14 06:18:31;;;;;;;3.38;0.85;;;4.60;99.90;;;;;;5042849;28;20642;-63
2024/01/14 06:20:59;;;;;;;7.53;0.80;;;4.70;99.90;;;;;;5041078;28;20039;-63
2024/01/14 06:23:25;;;;;;;4.85;0.93;;;4.70;99.90;;;;;;5045005;28;20494;-63
2024/01/14 06:25:51;;;;;;;9.00;1.40;;;4.70;99.90;;;;;;5046720;28;20041;-63
2024/01/14 06:28:17;;;;;;;3.63;1.00;;;4.70;99.90;;;;;;5048248;28;20029;-63
2024/01/14 06:30:43;;;;;;;2.50;0.65;;;4.80;99.90;;;;;;5041799;28;20628;-63
2024/01/14 06:33:09;;;;;;;4.25;0.80;;;4.70;99.90;;;;;;5041764;28;20036;-63
2024/01/14 06:35:35;;;;;;;6.18;1.10;;;4.70;99.90;;;;;;5047812;28;20658;-63
2024/01/14 06:38:01;;;;;;;5.00;1.00;;;4.70;99.90;;;;;;5046356;28;20120;-63
2024/01/14 06:40:27;;;;;;;5.97;1.05;;;4.70;99.90;;;;;;5047144;28;20031;-63
2024/01/14 06:42:53;;;;;;;6.20;0.93;;;4.50;99.90;;;;;;5045288;28;20726;-63
2024/01/14 06:45:19;;;;;;;7.72;0.90;;;4.50;99.90;;;;;;5047532;28;20046;-63
2024/01/14 06:47:45;;;;;;;10.35;1.65;;;4.50;99.90;;;;;;5041773;28;20033;-63
2024/01/14 06:50:11;;;;;;;3.88;0.65;;;4.50;99.90;;;;;;5044156;28;20066;-63
2024/01/14 06:52:37;;;;;;;8.88;0.88;;;4.40;99.90;;;;;;5041011;28;20083;-63
2024/01/14 06:55:07;;;;;;;8.80;1.27;;;4.40;99.90;;;;;;5043384;28;20032;-63
2024/01/14 06:57:33;;;;;;;7.97;1.00;;;4.40;99.90;;;;;;5044967;28;20040;-63
2024/01/14 07:00:07;;;;;;;3.53;0.60;;;4.40;99.90;;;;;;5047825;28;20400;-63
2024/01/14 07:02:33;;;;;;;8.13;1.10;;;4.30;99.90;;;;;;5048649;28;20056;-63
2024/01/14 07:04:59;;;;;;;9.10;0.80;;;4.40;99.90;;;;;;5042006;28;20037;-63
2024/01/14 07:07:25;;;;;;;3.08;0.88;;;4.40;99.90;;;;;;5042893;28;20466;-63
2024/01/14 07:09:51;;;;;;;3.35;1.00;;;4.40;99.90;;;;;;5040277;28;20060;-63
2024/01/14 07:12:16;;;;;;;6.70;0.82;;;4.40;99.90;;;;;;5044427;28;20037;-63
2024/01/14 07:14:42;;;;;;;3.88;1.42;;;4.40;99.90;;;;;;5043207;28;20028;-63
2024/01/14 07:17:08;;;;;;;5.93;2.05;;;4.40;99.90;;;;;;5042849;28;20080;-63
2024/01/14 07:19:35;;;;;;;4.03;1.75;;;4.40;99.90;;;;;;5041394;28;20029;-63
2024/01/14 07:22:02;;;;;;;6.55;3.30;;;4.40;99.90;;;;;;5043192;28;20145;-63
2024/01/14 07:24:28;;;;;;;6.47;5.88;;;4.40;99.90;;;;;;5040024;28;20044;-62
2024/01/14 07:26:54;;;;;;;23.67;8.52;;;4.50;99.90;;;;;;5037471;28;20025;-63
2024/01/14 07:29:19;;;;;;;9.48;2.90;;;4.50;99.90;;;;;;5042379;28;20025;-63
2024/01/14 07:31:45;;;;;;;13.85;4.93;;;4.50;99.90;;;;;;5041576;28;20572;-63
2024/01/14 07:34:11;;;;;;;12.07;3.95;;;4.50;99.90;;;;;;5046049;28;20101;-63
2024/01/14 07:36:37;;;;;;;7.20;2.25;;;4.50;99.90;;;;;;5044872;28;20489;-63
2024/01/14 07:39:04;;;;;;;3.38;1.25;;;4.50;99.90;;;;;;5046747;28;20060;-63
2024/01/14 07:41:30;;;;;;;1.50;1.00;;;4.50;99.90;;;;;;5039148;28;20120;-63
2024/01/14 07:43:56;;;;;;;2.53;1.00;;;4.60;99.90;;;;;;5037696;28;20120;-63
2024/01/14 07:46:22;;;;;;;3.78;1.00;;;4.60;99.90;;;;;;5041852;28;20029;-62
2024/01/14 07:48:47;;;;;;;2.33;0.90;;;4.60;99.90;;;;;;5040279;28;20030;-63
2024/01/14 07:51:13;;;;;;;5.43;2.25;;;4.70;99.90;;;;;;5045489;28;20372;-63
2024/01/14 07:53:39;;;;;;;5.80;1.50;;;4.70;99.90;;;;;;5043782;28;20052;-63
2024/01/14 07:56:05;;;;;;;7.63;1.63;;;4.70;99.90;;;;;;5045988;28;20049;-63
2024/01/14 07:58:31;;;;;;;8.10;3.45;;;4.80;99.90;;;;;;5040704;28;20032;-63
2024/01/14 08:00:56;;;;;;;6.32;3.17;;;4.80;99.90;;;;;;5040390;28;20503;-63
2024/01/14 08:03:22;;;;;;;4.82;1.42;;;4.60;99.90;;;;;;5043771;28;20043;-63
2024/01/14 08:05:48;;;;;;;3.60;1.70;;;4.60;99.90;;;;;;5041247;28;20064;-63
2024/01/14 08:08:14;;;;;;;11.25;3.15;;;4.60;99.90;;;;;;5039989;28;20028;-63
2024/01/14 08:10:39;;;;;;;3.28;1.27;;;4.70;99.90;;;;;;5042849;28;20033;-63
2024/01/14 08:13:05;;;;;;;3.50;0.95;;;4.80;99.90;;;;;;5045413;28;20021;-63
2024/01/14 08:15:31;;;;;;;3.28;0.95;;;4.70;99.90;;;;;;5045389;28;20024;-63
2024/01/14 08:17:57;;;;;;;4.03;1.20;;;4.70;99.90;;;;;;5036149;28;20043;-63
2024/01/14 08:20:22;;;;;;;7.68;3.25;;;4.80;99.90;;;;;;5040235;28;20132;-63
2024/01/14 08:22:48;;;;;;;3.92;1.63;;;4.90;99.90;;;;;;5038776;28;20095;-63
2024/01/14 08:25:14;;;;;;;4.00;1.23;;;5.00;99.90;;;;;;5042590;28;20025;-63
2024/01/14 08:27:40;;;;;;;4.22;1.15;;;5.10;99.90;;;;;;5042210;28;20447;-63
2024/01/14 08:30:07;;;;;;;6.70;1.75;;;5.10;99.90;;;;;;5045318;28;20037;-63
2024/01/14 08:32:32;;;;;;;2.42;0.90;;;5.10;99.90;;;;;;5045920;28;20032;-63
2024/01/14 08:34:58;;;;;;;6.28;1.38;;;5.00;99.90;;;;;;5034258;28;20052;-64
2024/01/14 08:37:27;;;;;;;3.17;1.85;;;5.00;99.90;;;;;;5045486;28;20115;-63
2024/01/14 08:39:54;;;;;;;3.85;1.65;;;5.10;99.90;;;;;;5043153;28;20449;-63
2024/01/14 08:42:20;;;;;;;9.48;2.67;;;5.10;99.90;;;;;;5041589;28;20025;-63
2024/01/14 08:44:47;;;;;;;11.38;4.15;;;5.10;99.90;;;;;;5040377;28;20045;-64
2024/01/14 08:47:13;;;;;;;5.72;1.85;;;5.00;99.90;;;;;;5043980;28;20025;-62
2024/01/14 08:49:42;;;;;;;4.13;1.73;;;5.00;99.90;;;;;;5043740;28;20025;-63
2024/01/14 08:52:08;;;;;;;4.45;1.33;;;4.90;99.90;;;;;;5036364;28;20039;-63
2024/01/14 08:54:35;;;;;;;5.95;1.20;;;5.00;99.90;;;;;;5037780;28;20166;-63
2024/01/14 08:57:01;;;;;;;6.45;1.90;;;5.00;99.90;;;;;;5038020;28;20036;-63
2024/01/14 08:59:26;;;;;;;12.55;2.45;;;5.20;99.90;;;;;;5035362;28;20056;-64
2024/01/14 09:01:52;;;;;;;11.75;4.97;;;5.20;99.90;;;;;;5039077;28;20025;-64
2024/01/14 09:04:19;;;;;;;3.28;2.03;;;5.20;99.90;;;;;;5042578;28;20111;-64
2024/01/14 09:06:45;;;;;;;4.32;1.63;;;5.20;99.90;;;;;;5043214;28;20373;-63
2024/01/14 09:09:12;;;;;;;5.07;0.95;;;5.10;99.90;;;;;;5037553;28;20032;-63
2024/01/14 09:11:38;;;;;;;2.25;1.25;;;5.30;99.90;;;;;;5036625;28;20029;-63
2024/01/14 09:14:05;;;;;;;3.50;1.33;;;5.30;99.90;;;;;;5037033;28;20033;-63
2024/01/14 09:16:31;;;;;;;2.35;1.48;;;5.40;99.90;;;;;;5038278;28;20032;-64
2024/01/14 09:18:56;;;;;;;7.13;1.02;;;5.50;99.90;;;;;;5035375;28;20033;-64
2024/01/14 09:21:22;;;;;;;3.78;0.90;;;5.60;99.90;;;;;;5038328;28;20059;-64
2024/01/14 09:23:48;;;;;;;6.88;1.15;;;5.70;99.90;;;;;;5042929;28;20060;-64
2024/01/14 09:26:14;;;;;;;4.53;1.50;;;5.60;99.90;;;;;;5040840;28;20582;-63
2024/01/14 09:28:40;;;;;;;3.97;0.80;;;5.40;99.90;;;;;;5036437;28;20028;-64
2024/01/14 09:31:06;;;;;;;4.05;0.80;;;5.50;99.90;;;;;;5039136;28;20082;-64
2024/01/14 09:33:32;;;;;;;2.55;0.90;;;5.60;99.90;;;;;;5039513;28;20098;-63
2024/01/14 09:36:08;;;;;;;5.55;1.08;;;5.50;99.90;;;;;;5034775;28;20059;-64
2024/01/14 09:38:35;;;;;;;7.90;1.60;;;5.50;99.90;;;;;;5041101;28;20056;-62
2024/01/14 09:41:39;;;;;;;4.35;1.35;;;5.50;99.90;;;;;;5036295;28;20029;-63
2024/01/14 09:44:09;;;;;;;4.70;1.13;;;5.50;99.90;;;;;;5044766;28;20064;-64
2024/01/14 09:46:35;;;;;;;4.35;1.33;;;5.40;99.90;;;;;;5036698;28;20033;-64
2024/01/14 09:49:02;;;;;;;3.90;1.73;;;5.50;99.90;;;;;;5036093;28;20107;-64
2024/01/14 09:51:30;;;;;;;5.75;1.65;;;5.50;99.90;;;;;;5039609;28;20032;-64
2024/01/14 09:53:58;;;;;;;2.72;1.13;;;5.60;99.90;;;;;;5039547;28;20033;-60
2024/01/14 09:56:25;;;;;;;3.80;0.95;;;5.60;99.90;;;;;;5041782;28;20039;-61
2024/01/14 09:58:53;;;;;;;3.53;0.98;;;5.60;99.90;;;;;;5031777;28;20059;-63
2024/01/14 10:01:21;;;;;;;6.25;1.58;;;5.60;99.90;;;;;;5044874;28;20028;-63
2024/01/14 10:03:49;;;;;;;4.88;1.30;;;5.70;99.90;;;;;;5040315;28;20124;-63
2024/01/14 10:06:15;;;;;;;6.28;2.15;;;5.80;99.90;;;;;;5044794;28;20127;-63
2024/01/14 10:08:41;;;;;;;4.88;0.80;;;5.80;99.90;;;;;;5044839;28;20495;-63
2024/01/14 10:11:07;;;;;;;2.55;0.82;;;5.70;99.90;;;;;;5040586;28;20531;-63
2024/01/14 10:13:34;;;;;;;4.07;0.98;;;5.60;99.90;;;;;;5031686;28;20622;-63
2024/01/14 10:16:02;;;;;;;4.32;1.15;;;5.60;99.90;;;;;;5041771;28;20040;-62
2024/01/14 10:18:27;;;;;;;5.30;0.90;;;5.60;99.90;;;;;;5037186;28;20394;-63
2024/01/14 10:20:54;;;;;;;5.63;1.23;;;5.60;99.90;;;;;;5036480;28;20037;-63
2024/01/14 10:23:23;;;;;;;2.50;0.90;;;5.50;99.90;;;;;;5044452;28;20040;-63
2024/01/14 10:25:51;;;;;;;5.07;1.30;;;5.60;99.90;;;;;;5036831;28;20641;-63
2024/01/14 10:28:17;;;;;;;5.82;1.85;;;5.70;99.90;;;;;;5035128;28;20025;-64
2024/01/14 10:30:44;;;;;;;3.92;1.65;;;5.80;99.90;;;;;;5040665;28;20031;-63
2024/01/14 10:33:10;;;;;;;6.22;1.92;;;6.00;99.90;;;;;;5038811;28;20140;-63
2024/01/14 10:35:38;;;;;;;4.63;1.08;;;6.20;99.90;;;;;;5039999;28;20738;-63
2024/01/14 10:38:04;;;;;;;6.45;1.15;;;6.10;99.90;;;;;;5041260;28;20115;-63
2024/01/14 10:40:30;;;;;;;4.10;0.88;;;6.10;99.90;;;;;;5036073;28;20024;-63
2024/01/14 10:42:57;;;;;;;2.95;0.77;;;6.00;99.90;;;;;;5040679;28;20037;-63
2024/01/14 10:45:23;;;;;;;2.83;1.30;;;6.00;99.90;;;;;;5042613;28;20033;-63
2024/01/14 10:47:55;;;;;;;6.45;1.20;;;6.10;99.90;;;;;;5039922;28;20025;-63
2024/01/14 10:50:23;;;;;;;2.92;0.75;;;6.10;99.90;;;;;;5042092;28;20148;-63
2024/01/14 10:52:52;;;;;;;4.53;2.10;;;6.20;99.90;;;;;;5044156;28;20040;-64
2024/01/14 10:55:43;;;;;;;4.80;1.08;;;6.20;99.90;;;;;;5043410;28;20040;-62
2024/01/14 10:58:15;;;;;;;9.00;2.28;;;6.20;99.90;;;;;;5031336;28;20037;-63
2024/01/14 11:00:44;;;;;;;5.65;1.38;;;6.00;99.90;;;;;;5040981;28;20499;-63
2024/01/14 11:03:10;;;;;;;4.65;1.67;;;6.00;99.90;;;;;;5047610;28;20035;-63
2024/01/14 11:05:36;;;;;;;7.03;1.23;;;5.90;99.90;;;;;;5045876;28;20032;-63
2024/01/14 11:08:03;;;;;;;4.53;1.13;;;5.90;99.90;;;;;;5044896;28;20051;-63
2024/01/14 11:10:31;;;;;;;2.88;0.90;;;6.00;99.90;;;;;;5047657;28;20082;-63
2024/01/14 11:13:09;;;;;;;2.60;0.90;;;6.00;99.90;;;;;;5045416;28;20028;-63
2024/01/14 11:15:51;;;;;;;3.47;1.08;;;6.00;99.90;;;;;;5044562;28;20043;-63
2024/01/14 11:18:24;;;;;;;5.32;1.00;;;6.10;99.90;;;;;;5035042;28;20049;-63
2024/01/14 11:21:07;;;;;;;4.13;1.33;;;6.10;99.90;;;;;;5045741;28;20083;-63
2024/01/14 11:23:33;;;;;;;2.97;0.65;;;6.10;99.90;;;;;;5042044;28;20426;-63
2024/01/14 11:25:59;;;;;;;7.00;1.35;;;6.10;99.90;;;;;;5044306;28;20123;-63
2024/01/14 11:28:27;;;;;;;4.38;1.20;;;6.10;99.90;;;;;;5042529;28;20037;-63
2024/01/14 11:30:55;;;;;;;5.55;1.05;;;6.10;99.90;;;;;;5043196;28;20565;-63
2024/01/14 11:33:49;;;;;;;3.15;0.93;;;6.10;99.90;;;;;;5047023;28;20031;-63
2024/01/14 11:36:54;;;;;;;3.33;1.63;;;6.10;99.90;;;;;;5044488;28;20086;-63
2024/01/14 11:39:19;;;;;;;4.65;1.45;;;6.00;99.90;;;;;;5037906;28;20061;-63
2024/01/14 11:41:45;;;;;;;3.58;1.25;;;6.00;99.90;;;;;;5041737;28;20068;-63
2024/01/14 11:44:14;;;;;;;4.40;1.27;;;6.00;99.90;;;;;;5040233;28;20028;-63
2024/01/14 11:46:48;;;;;;;4.72;1.30;;;6.10;99.90;;;;;;5037400;28;20140;-64
2024/01/14 11:49:22;;;;;;;4.50;1.33;;;6.10;99.90;;;;;;5046493;28;20039;-63
2024/01/14 11:51:57;;;;;;;3.58;1.15;;;6.20;99.90;;;;;;5046144;28;20622;-63
2024/01/14 11:54:24;;;;;;;7.75;1.02;;;6.20;99.90;;;;;;5044356;28;20451;-63
2024/01/14 11:56:50;;;;;;;4.43;1.13;;;6.00;99.90;;;;;;5042894;28;20091;-63
2024/01/14 11:59:17;;;;;;;3.55;0.65;;;5.90;99.90;;;;;;5038930;28;20041;-63
2024/01/14 12:01:43;;;;;;;2.05;0.75;;;5.90;99.90;;;;;;5042251;28;20466;-63
2024/01/14 12:04:09;;;;;;;2.72;1.00;;;6.00;99.90;;;;;;5044397;28;20118;-62
2024/01/14 12:06:43;;;;;;;9.13;1.25;;;5.90;99.90;;;;;;5036363;28;20094;-63
2024/01/14 12:09:11;;;;;;;4.65;1.10;;;5.90;99.90;;;;;;5031854;28;20092;-63
2024/01/14 12:11:38;;;;;;;3.95;1.10;;;5.90;99.90;;;;;;5037690;28;20029;-63
2024/01/14 12:14:04;;;;;;;6.68;1.42;;;5.90;99.90;;;;;;5039027;28;20481;-63
2024/01/14 12:16:34;;;;;;;3.58;1.15;;;5.70;99.90;;;;;;5039946;28;20076;-63
2024/01/14 12:19:00;;;;;;;7.25;1.05;;;5.50;99.90;;;;;;5040178;28;20041;-63
2024/01/14 12:21:27;;;;;;;4.70;1.00;;;5.50;99.90;;;;;;5042512;28;20043;-63
2024/01/14 12:23:53;;;;;;;4.40;1.35;;;5.50;99.90;;;;;;5045584;28;20028;-62
2024/01/14 12:26:19;;;;;;;7.32;0.90;;;5.60;99.90;;;;;;5038376;28;20033;-62
2024/01/14 12:28:48;;;;;;;5.30;1.45;;;5.60;99.90;;;;;;5037425;28;20126;-62
2024/01/14 12:31:20;;;;;;;3.00;1.13;;;5.60;99.90;;;;;;5036783;28;20048;-62
2024/01/14 12:33:46;;;;;;;6.80;1.00;;;5.50;99.90;;;;;;5046280;28;20037;-63
2024/01/14 12:36:15;;;;;;;6.38;1.50;;;5.60;99.90;;;;;;5045799;28;20082;-62
2024/01/14 12:38:42;;;;;;;4.53;1.40;;;5.60;99.90;;;;;;5036642;28;20037;-62
2024/01/14 12:41:12;;;;;;;6.57;2.28;;;5.60;99.90;;;;;;5037865;28;20121;-62
2024/01/14 12:43:38;;;;;;;5.82;1.55;;;5.60;99.90;;;;;;5043875;28;20709;-62
2024/01/14 12:46:04;;;;;;;21.27;15.32;;;5.70;99.90;;;;;;5044869;28;20033;-63
2024/01/14 12:48:30;;;;;;;9.80;4.75;;;5.70;99.90;;;;;;5044636;28;20033;-63
2024/01/14 12:50:57;;;;;;;4.03;1.45;;;5.70;99.90;;;;;;5044201;28;20032;-62
2024/01/14 12:53:24;;;;;;;6.63;2.15;;;5.80;99.90;;;;;;5041170;28;20547;-62
2024/01/14 12:55:51;;;;;;;6.38;2.45;;;5.80;99.90;;;;;;5033384;28;20752;-63